Airfield :
LOGIN :

Register | Disclaimer

   EN    FR    IT 

 










Legend :    VFR   Marginal VFR   IFR   Intensive IFR   Very Intensive IFR
Visi :
Ceiling :
>= 8 km
>= 3000ft
5 to 8 km
1000 to 3000 ft
1500m to 5 km
500 to 1000 ft
800 to 1500m
200 to 500 ft
< 800m
< 200 ft
Symbols :   Thunderstorms  Fog  Heavy snow  Heavy precipitations  Wind > 20 kt
SIGMETs :     Misc.  Thunderstorms  Icing  Turbulence  Mountain Waves  Volcanic Ashes






- Airport Elevation : 1161 ft
- IATA code : RJL


LELO - Logroño-Agoncillo

CURRENT METAR :
  • 200800Z 28004KT 9999 SCT060 12/10 Q1007

EXPIRED METARs :
  • 200730Z VRB01KT 9999 FEW055 11/10 Q1006
  • 200700Z VRB02KT 9999 FEW060 11/10 Q1005
  • 200630Z 00000KT 9999 FEW035 SCT070 11/10 Q1005
  • 200600Z 32003KT 230V010 9999 FEW035 SCT065 12/10 Q1005
  • 200530Z 29004KT 260V320 9999 FEW050 12/11 Q1005

TAF TAF LELO
Valid from the 20 at 06:00 until the 20 at 15:00 UTC


200500Z 2006/2015 VRB05KT 9999 SCT020 BKN045
TEMPO 2006/2015 21013KT 3000 RA BR SCT009 BKN025



MET'MAP, your aeronautical weather chart ! - Copyright ORBIFLY December 2007 - Disclaimer

ORBIFLY MET'MAP TEAM :

Programming & Development : Alexandra Zaïnal
Concept & Development : Baudouin d'Aumeries
Co-Development & Prog : Marc-Olivier Méhu
Technical & hardware support : Manuel Goepfert

Contact : metmap@orbifly.com




SOURCES & CREDITS :

   NOAA